createdAt,value
2019-05-20T00:01:26.589Z,99.90
2019-05-20T00:03:54.146Z,99.90
2019-05-20T00:06:21.817Z,99.90
2019-05-20T00:08:49.929Z,99.90
2019-05-20T00:11:17.822Z,99.90
2019-05-20T00:13:45.431Z,99.90
2019-05-20T00:16:13.257Z,99.90
2019-05-20T00:18:40.802Z,99.90
2019-05-20T00:21:08.479Z,99.90
2019-05-20T00:23:36.087Z,99.90
2019-05-20T00:26:03.773Z,99.90
2019-05-20T00:28:31.268Z,99.90
2019-05-20T00:30:58.911Z,99.90
2019-05-20T00:33:26.470Z,99.90
2019-05-20T00:35:54.067Z,99.90
2019-05-20T00:38:21.691Z,99.90
2019-05-20T00:40:49.268Z,99.90
2019-05-20T00:43:23.061Z,99.90
2019-05-20T00:45:50.549Z,99.90
2019-05-20T00:48:18.087Z,99.90
2019-05-20T00:50:45.699Z,99.90
2019-05-20T00:53:13.291Z,99.90
2019-05-20T00:55:41.062Z,99.90
2019-05-20T00:58:08.673Z,99.90
2019-05-20T01:00:36.854Z,99.90
2019-05-20T01:03:04.494Z,99.90
2019-05-20T01:05:32.202Z,99.90
2019-05-20T01:07:59.862Z,99.90
2019-05-20T01:10:27.403Z,99.90
2019-05-20T01:12:55.035Z,99.90
2019-05-20T01:15:22.643Z,99.90
2019-05-20T01:17:50.222Z,99.90
2019-05-20T01:20:17.996Z,99.90
2019-05-20T01:22:45.583Z,99.90
2019-05-20T01:25:13.316Z,99.90
2019-05-20T01:27:40.909Z,99.90
2019-05-20T01:30:09.949Z,99.90
2019-05-20T01:32:37.579Z,99.90
2019-05-20T01:35:05.311Z,99.90
2019-05-20T01:37:32.973Z,99.90
2019-05-20T01:40:00.604Z,99.90
2019-05-20T01:42:28.184Z,99.90
2019-05-20T01:44:55.755Z,99.90
2019-05-20T01:47:23.356Z,99.90
2019-05-20T01:49:50.945Z,99.90
2019-05-20T01:52:18.465Z,99.90
2019-05-20T01:54:46.126Z,99.90
2019-05-20T01:57:13.759Z,99.90
2019-05-20T01:59:41.367Z,99.90
2019-05-20T02:02:09.316Z,99.90
2019-05-20T02:04:36.859Z,99.90
2019-05-20T02:07:04.802Z,99.90
2019-05-20T02:09:32.378Z,99.90
2019-05-20T02:12:00.028Z,99.90
2019-05-20T02:14:30.017Z,99.90
2019-05-20T02:16:57.624Z,99.90
2019-05-20T02:19:25.631Z,99.90
2019-05-20T02:21:53.229Z,99.90
2019-05-20T02:24:20.788Z,99.90
2019-05-20T02:26:48.395Z,99.90
2019-05-20T02:29:16.011Z,99.90
2019-05-20T02:31:43.559Z,99.90
2019-05-20T02:34:11.127Z,99.90
2019-05-20T02:36:38.754Z,99.90
2019-05-20T02:39:06.379Z,99.90
2019-05-20T02:41:34.249Z,99.90
2019-05-20T02:44:01.920Z,99.90
2019-05-20T02:46:29.497Z,99.90
2019-05-20T02:48:57.052Z,99.90
2019-05-20T02:51:30.494Z,99.90
2019-05-20T02:53:59.319Z,99.90
2019-05-20T02:56:26.932Z,99.90
2019-05-20T02:58:54.568Z,99.90
2019-05-20T03:01:22.277Z,99.90
2019-05-20T03:04:07.971Z,99.90
2019-05-20T03:06:19.118Z,99.90
2019-05-20T03:08:46.736Z,99.90
2019-05-20T03:11:14.321Z,99.90
2019-05-20T03:13:41.960Z,99.90
2019-05-20T03:16:09.602Z,99.90
2019-05-20T03:18:37.184Z,99.90
2019-05-20T03:21:04.750Z,99.90
2019-05-20T03:23:32.369Z,99.90
2019-05-20T03:25:59.898Z,99.90
2019-05-20T03:28:27.697Z,99.90
2019-05-20T03:30:55.349Z,99.90
2019-05-20T03:33:22.880Z,99.90
2019-05-20T03:35:50.633Z,99.90
2019-05-20T03:38:18.208Z,99.90
2019-05-20T03:40:45.807Z,99.90
2019-05-20T03:43:13.311Z,99.90
2019-05-20T03:45:40.868Z,99.90
2019-05-20T03:48:08.409Z,99.90
2019-05-20T03:50:35.965Z,99.90
2019-05-20T03:53:03.584Z,99.90
2019-05-20T03:55:31.082Z,99.90
2019-05-20T03:57:58.642Z,99.90
2019-05-20T04:00:43.693Z,99.90
2019-05-20T04:03:11.425Z,99.90
2019-05-20T04:05:39.186Z,99.90
2019-05-20T04:08:06.759Z,99.90
2019-05-20T04:10:34.386Z,99.90
2019-05-20T04:13:01.921Z,99.90
2019-05-20T04:15:29.491Z,99.90
2019-05-20T04:17:57.222Z,99.90
2019-05-20T04:20:24.842Z,99.90
2019-05-20T04:22:52.364Z,99.90
2019-05-20T04:25:20.093Z,99.90
2019-05-20T04:27:47.640Z,99.90
2019-05-20T04:30:18.849Z,99.90
2019-05-20T04:32:45.216Z,99.90
2019-05-20T04:35:22.239Z,99.90
2019-05-20T04:37:42.763Z,99.90
2019-05-20T04:40:11.396Z,99.90
2019-05-20T04:42:39.030Z,99.90
2019-05-20T04:45:07.599Z,99.90
2019-05-20T04:47:35.550Z,99.90
2019-05-20T04:50:03.534Z,99.90
2019-05-20T04:52:31.020Z,99.90
2019-05-20T04:54:58.625Z,99.90
2019-05-20T04:57:26.192Z,99.90
2019-05-20T04:59:53.771Z,99.90
2019-05-20T05:02:21.343Z,99.90
2019-05-20T05:04:48.860Z,99.90
2019-05-20T05:07:16.379Z,99.90
2019-05-20T05:09:43.971Z,99.90
2019-05-20T05:12:12.654Z,99.90
2019-05-20T05:14:40.308Z,99.90
2019-05-20T05:17:07.789Z,99.90
2019-05-20T05:19:35.641Z,99.90
2019-05-20T05:22:03.387Z,99.90
2019-05-20T05:24:30.917Z,99.90
2019-05-20T05:26:58.548Z,99.90
2019-05-20T05:29:26.195Z,99.90
2019-05-20T05:31:53.857Z,99.90
2019-05-20T05:34:21.476Z,99.90
2019-05-20T05:36:49.044Z,99.90
2019-05-20T05:39:16.579Z,99.90
2019-05-20T05:41:44.773Z,99.90
2019-05-20T05:44:12.539Z,99.90
2019-05-20T05:46:40.152Z,99.90
2019-05-20T05:49:07.795Z,99.90
2019-05-20T05:51:35.396Z,99.90
2019-05-20T05:54:03.085Z,99.90
2019-05-20T05:56:30.610Z,99.90
2019-05-20T05:58:58.256Z,99.90
2019-05-20T06:01:25.823Z,99.90
2019-05-20T06:03:53.357Z,99.90
2019-05-20T06:06:20.968Z,99.90
2019-05-20T06:08:48.618Z,99.90
2019-05-20T06:11:16.182Z,99.90
2019-05-20T06:13:43.739Z,99.90
2019-05-20T06:16:11.740Z,99.90
2019-05-20T06:18:39.290Z,99.90
2019-05-20T06:21:06.911Z,99.90
2019-05-20T06:23:34.504Z,99.90
2019-05-20T06:26:02.247Z,99.90
2019-05-20T06:28:29.731Z,99.90
2019-05-20T06:30:57.465Z,99.90
2019-05-20T06:33:25.096Z,99.90
2019-05-20T06:35:52.877Z,99.90
2019-05-20T06:38:42.140Z,99.90
2019-05-20T06:41:09.705Z,99.90
2019-05-20T06:43:37.296Z,99.90
2019-05-20T06:46:04.990Z,99.90
2019-05-20T06:48:32.735Z,99.90
2019-05-20T06:51:00.445Z,99.90
2019-05-20T06:53:28.179Z,99.90
2019-05-20T06:55:55.936Z,99.90
2019-05-20T06:58:23.523Z,99.90
2019-05-20T07:00:51.218Z,99.90
2019-05-20T07:03:19.191Z,99.90
2019-05-20T07:05:47.011Z,99.90
2019-05-20T07:08:14.760Z,99.90
2019-05-20T07:10:43.382Z,99.90
2019-05-20T07:13:11.351Z,99.90
2019-05-20T07:15:39.107Z,99.90
2019-05-20T07:18:10.362Z,99.90
2019-05-20T07:20:38.190Z,99.90
2019-05-20T07:23:05.773Z,99.90
2019-05-20T07:25:33.589Z,99.90
2019-05-20T07:28:01.318Z,99.90
2019-05-20T07:30:29.181Z,99.90
2019-05-20T07:34:06.728Z,99.70
2019-05-20T07:37:50.776Z,99.90
2019-05-20T07:40:16.146Z,99.90
2019-05-20T07:42:59.879Z,99.90
2019-05-20T07:45:54.309Z,99.90
2019-05-20T07:48:52.395Z,99.90
2019-05-20T07:52:02.156Z,99.90
2019-05-20T08:02:13.370Z,99.90
2019-05-20T08:05:15.839Z,99.90
2019-05-20T08:07:52.501Z,99.90
2019-05-20T08:18:01.386Z,99.90
2019-05-20T08:30:49.946Z,99.90
2019-05-20T08:34:22.375Z,99.90
2019-05-20T08:49:34.040Z,99.60
2019-05-20T08:52:10.710Z,99.60
2019-05-20T08:55:34.130Z,99.60
2019-05-20T08:58:07.114Z,99.50
2019-05-20T09:01:09.433Z,99.50
2019-05-20T09:03:53.387Z,99.80
2019-05-20T09:06:25.555Z,99.90
2019-05-20T09:08:58.501Z,99.70
2019-05-20T09:11:27.268Z,99.60
2019-05-20T09:14:01.161Z,99.40
2019-05-20T09:20:58.082Z,99.00
2019-05-20T09:26:49.086Z,99.20
2019-05-20T09:30:03.785Z,99.00
2019-05-20T09:32:43.398Z,98.80
2019-05-20T09:35:11.384Z,99.20
2019-05-20T09:37:44.809Z,99.40
2019-05-20T09:40:31.005Z,99.30
2019-05-20T09:42:59.688Z,99.30
2019-05-20T09:45:30.653Z,99.10
2019-05-20T09:48:08.560Z,99.60
2019-05-20T09:50:39.628Z,99.30
2019-05-20T09:53:24.294Z,98.80
2019-05-20T10:03:35.157Z,99.00
2019-05-20T10:07:10.276Z,98.70
2019-05-20T10:10:31.159Z,98.80
2019-05-20T10:13:03.008Z,99.10
2019-05-20T10:15:45.236Z,98.80
2019-05-20T10:18:36.767Z,99.00
2019-05-20T10:21:00.378Z,98.90
2019-05-20T10:23:35.132Z,99.10
2019-05-20T10:26:19.652Z,99.10
2019-05-20T10:28:47.714Z,99.30
2019-05-20T10:31:15.861Z,99.50
2019-05-20T10:33:45.388Z,99.20
2019-05-20T10:36:13.218Z,99.40
2019-05-20T10:38:56.830Z,99.40
2019-05-20T10:41:10.843Z,99.50
2019-05-20T10:43:38.635Z,99.80
2019-05-20T10:46:06.460Z,99.90
2019-05-20T10:48:44.532Z,99.90
2019-05-20T10:51:12.180Z,99.90
2019-05-20T10:53:43.202Z,99.80
2019-05-20T10:56:11.125Z,99.70
2019-05-20T10:58:39.140Z,99.70
2019-05-20T11:01:06.801Z,99.80
2019-05-20T11:03:34.611Z,99.90
2019-05-20T11:06:02.488Z,99.90
2019-05-20T11:08:33.252Z,99.90
2019-05-20T11:11:04.111Z,99.90
2019-05-20T11:13:35.470Z,99.90
2019-05-20T11:16:03.350Z,99.90
2019-05-20T11:18:31.294Z,99.90
2019-05-20T11:20:59.021Z,99.90
2019-05-20T11:23:26.698Z,99.90
2019-05-20T11:25:54.328Z,99.90
2019-05-20T11:28:23.051Z,99.90
2019-05-20T11:30:50.723Z,99.90
2019-05-20T11:33:18.362Z,99.90
2019-05-20T11:35:46.249Z,99.90
2019-05-20T11:38:13.855Z,99.90
2019-05-20T11:52:35.657Z,99.90
2019-05-20T11:59:44.875Z,99.90
2019-05-20T12:16:57.913Z,99.90
2019-05-20T12:20:06.919Z,99.90
2019-05-20T12:22:41.359Z,99.90
2019-05-20T12:25:16.388Z,99.90
2019-05-20T12:34:54.448Z,99.90
2019-05-20T12:53:50.332Z,99.90
2019-05-20T12:57:32.227Z,99.90
2019-05-20T13:00:30.937Z,99.90
2019-05-20T13:06:20.479Z,99.90
2019-05-20T13:08:51.002Z,99.90
2019-05-20T13:11:28.351Z,99.90
2019-05-20T13:14:01.613Z,99.90
2019-05-20T13:16:36.634Z,99.90
2019-05-20T13:19:04.916Z,99.90
2019-05-20T13:21:33.901Z,99.90
2019-05-20T13:24:11.485Z,99.90
2019-05-20T13:26:44.600Z,99.90
2019-05-20T13:29:37.761Z,99.90
2019-05-20T13:32:11.535Z,99.90
2019-05-20T13:35:16.118Z,99.90
2019-05-20T13:38:03.476Z,99.90
2019-05-20T13:57:46.620Z,99.90
2019-05-20T14:00:28.877Z,99.90
2019-05-20T14:03:37.959Z,99.90
2019-05-20T14:06:00.013Z,99.90
2019-05-20T14:09:02.312Z,99.90
2019-05-20T14:11:34.732Z,99.90
2019-05-20T14:14:59.978Z,99.90
2019-05-20T14:17:40.816Z,99.90
2019-05-20T14:20:23.659Z,99.90
2019-05-20T14:22:56.289Z,99.90
2019-05-20T14:28:32.549Z,99.90
2019-05-20T14:31:11.705Z,99.90
2019-05-20T14:33:40.624Z,99.90
2019-05-20T14:36:38.572Z,99.90
2019-05-20T14:39:04.741Z,99.90
2019-05-20T14:41:44.966Z,99.90
2019-05-20T14:44:33.560Z,99.90
2019-05-20T14:47:57.148Z,99.90
2019-05-20T14:55:41.458Z,99.90
2019-05-20T14:58:13.415Z,99.90
2019-05-20T15:04:58.816Z,99.90
2019-05-20T15:07:43.080Z,99.90
2019-05-20T15:10:45.923Z,99.90
2019-05-20T15:13:45.465Z,99.90
2019-05-20T15:16:39.195Z,99.90
2019-05-20T15:23:28.378Z,99.90
2019-05-20T15:26:19.482Z,99.90
2019-05-20T15:28:52.597Z,99.90
2019-05-20T15:31:24.749Z,99.90
2019-05-20T15:33:57.809Z,99.90
2019-05-20T15:36:28.788Z,99.90
2019-05-20T15:39:25.335Z,99.90
2019-05-20T15:45:25.937Z,99.90
2019-05-20T15:48:15.855Z,99.90
2019-05-20T15:51:08.477Z,99.90
2019-05-20T15:53:38.740Z,99.90
2019-05-20T15:56:16.706Z,99.90
2019-05-20T15:59:03.400Z,99.90
2019-05-20T16:01:54.457Z,99.90
2019-05-20T16:04:26.361Z,99.90
2019-05-20T16:07:14.639Z,99.90
2019-05-20T16:10:06.910Z,99.90
2019-05-20T16:12:44.820Z,99.90
2019-05-20T16:15:19.072Z,99.90
2019-05-20T16:17:58.578Z,99.90
2019-05-20T16:29:22.003Z,99.90
2019-05-20T16:32:22.899Z,99.90
2019-05-20T17:00:29.846Z,99.90
2019-05-20T17:07:29.710Z,99.90
2019-05-20T17:17:45.683Z,99.90
2019-05-20T17:20:36.566Z,99.90
2019-05-20T17:23:12.248Z,99.90
2019-05-20T17:26:16.944Z,99.90
2019-05-20T17:29:14.735Z,99.90
2019-05-20T17:32:01.248Z,99.90
2019-05-20T17:34:29.408Z,99.90
2019-05-20T17:36:59.398Z,99.90
2019-05-20T17:39:32.331Z,99.90
2019-05-20T17:42:10.730Z,99.90
2019-05-20T17:44:54.649Z,99.90
2019-05-20T17:47:33.514Z,99.90
2019-05-20T17:50:11.065Z,99.90
2019-05-20T17:52:41.811Z,99.90
2019-05-20T17:55:36.303Z,99.90
2019-05-20T17:58:19.178Z,99.90
2019-05-20T18:05:21.639Z,99.90
2019-05-20T18:15:03.279Z,99.90
2019-05-20T18:17:36.070Z,99.90
2019-05-20T18:23:06.914Z,99.90
2019-05-20T18:25:45.397Z,99.90
2019-05-20T18:28:53.642Z,99.90
2019-05-20T18:32:10.770Z,99.90
2019-05-20T18:34:49.553Z,99.90
2019-05-20T18:37:17.537Z,99.90
2019-05-20T18:39:45.394Z,99.90
2019-05-20T18:42:13.031Z,99.90
2019-05-20T18:44:40.704Z,99.90
2019-05-20T18:47:08.537Z,99.90
2019-05-20T18:49:36.157Z,99.90
2019-05-20T18:52:03.696Z,99.90
2019-05-20T18:54:31.599Z,99.90
2019-05-20T18:56:59.271Z,99.90
2019-05-20T18:59:26.899Z,99.90
2019-05-20T19:02:05.507Z,99.90
2019-05-20T19:04:49.560Z,99.90
2019-05-20T19:07:17.185Z,99.90
2019-05-20T19:09:47.981Z,99.90
2019-05-20T19:12:15.789Z,99.90
2019-05-20T19:14:43.845Z,99.90
2019-05-20T19:17:11.469Z,99.90
2019-05-20T19:19:39.235Z,99.90
2019-05-20T19:22:06.949Z,99.90
2019-05-20T19:24:34.581Z,99.90
2019-05-20T19:27:04.075Z,99.90
2019-05-20T19:29:36.881Z,99.90
2019-05-20T19:32:04.892Z,99.90
2019-05-20T19:34:33.511Z,99.90
2019-05-20T19:37:01.161Z,99.90
2019-05-20T19:39:28.795Z,99.90
2019-05-20T19:42:02.925Z,99.90
2019-05-20T19:44:31.640Z,99.90
2019-05-20T19:47:02.867Z,99.90
2019-05-20T19:49:31.255Z,99.90
2019-05-20T19:51:58.942Z,99.90
2019-05-20T19:54:34.896Z,99.90
2019-05-20T19:57:05.295Z,99.90
2019-05-20T19:59:34.194Z,99.90
2019-05-20T20:02:16.369Z,99.90
2019-05-20T20:04:32.397Z,99.90
2019-05-20T20:07:00.112Z,99.90
2019-05-20T20:09:28.341Z,99.90
2019-05-20T20:11:57.226Z,99.90
2019-05-20T20:14:26.600Z,99.90
2019-05-20T20:16:54.342Z,99.90
2019-05-20T20:19:22.112Z,99.90
2019-05-20T20:21:50.472Z,99.90
2019-05-20T20:24:19.004Z,99.90
2019-05-20T20:26:46.600Z,99.90
2019-05-20T20:29:14.284Z,99.90
2019-05-20T20:31:41.982Z,99.90
2019-05-20T20:34:12.853Z,99.90
2019-05-20T20:36:40.796Z,99.90
2019-05-20T20:39:08.464Z,99.90
2019-05-20T20:41:36.085Z,99.90
2019-05-20T20:44:04.579Z,99.90
2019-05-20T20:46:32.413Z,99.90
2019-05-20T20:49:00.053Z,99.90
2019-05-20T20:51:27.628Z,99.90
2019-05-20T20:53:55.217Z,99.90
2019-05-20T20:56:25.504Z,99.90
2019-05-20T20:58:56.201Z,99.90
2019-05-20T21:01:25.052Z,99.90
2019-05-20T21:03:54.121Z,99.90
2019-05-20T21:06:21.630Z,99.90
2019-05-20T21:08:50.222Z,99.90
2019-05-20T21:11:17.991Z,99.90
2019-05-20T21:13:45.627Z,99.90
2019-05-20T21:16:13.798Z,99.90
2019-05-20T21:18:41.755Z,99.90
2019-05-20T21:21:09.392Z,99.90
2019-05-20T21:23:38.125Z,99.90
2019-05-20T21:26:05.724Z,99.90
2019-05-20T21:28:33.348Z,99.90
2019-05-20T21:31:00.882Z,99.90
2019-05-20T21:33:30.048Z,99.90
2019-05-20T21:35:57.851Z,99.90
2019-05-20T21:38:25.500Z,99.90
2019-05-20T21:40:53.014Z,99.90
2019-05-20T21:43:21.359Z,99.90
2019-05-20T21:45:48.931Z,99.90
2019-05-20T21:48:21.880Z,99.90
2019-05-20T21:50:49.873Z,99.90
2019-05-20T21:53:17.477Z,99.90
2019-05-20T21:55:45.463Z,99.90
2019-05-20T21:58:13.043Z,99.90
2019-05-20T22:00:47.326Z,99.90
2019-05-20T22:03:23.889Z,99.90
2019-05-20T22:05:47.552Z,99.90
2019-05-20T22:08:16.753Z,99.90
2019-05-20T22:10:47.065Z,99.90
2019-05-20T22:13:14.693Z,99.90
2019-05-20T22:15:42.248Z,99.90
2019-05-20T22:18:09.830Z,99.90
2019-05-20T22:20:37.397Z,99.90
2019-05-20T22:23:41.283Z,99.90
2019-05-20T22:26:08.869Z,99.90
2019-05-20T22:28:38.128Z,99.90
2019-05-20T22:31:05.772Z,99.90
2019-05-20T22:33:41.375Z,99.90
2019-05-20T22:36:02.721Z,99.90
2019-05-20T22:38:30.463Z,99.90
2019-05-20T22:40:58.039Z,99.90
2019-05-20T22:43:25.587Z,99.90
2019-05-20T22:45:53.454Z,99.90
2019-05-20T22:48:20.976Z,99.90
2019-05-20T22:50:48.968Z,99.90
2019-05-20T22:53:18.653Z,99.90
2019-05-20T22:55:46.279Z,99.90
2019-05-20T22:58:16.005Z,99.90
2019-05-20T23:00:43.541Z,99.90
2019-05-20T23:03:11.082Z,99.90
2019-05-20T23:05:39.803Z,99.90
2019-05-20T23:08:07.423Z,99.90
2019-05-20T23:10:44.568Z,99.90
2019-05-20T23:13:12.972Z,99.90
2019-05-20T23:15:41.088Z,99.90
2019-05-20T23:18:09.298Z,99.90
2019-05-20T23:20:38.817Z,99.90
2019-05-20T23:23:07.099Z,99.90
2019-05-20T23:25:34.657Z,99.90
2019-05-20T23:28:02.343Z,99.90
2019-05-20T23:30:29.913Z,99.90
2019-05-20T23:32:57.485Z,99.90
2019-05-20T23:35:25.092Z,99.90
2019-05-20T23:37:52.635Z,99.90
2019-05-20T23:40:20.240Z,99.90
2019-05-20T23:42:48.055Z,99.90
2019-05-20T23:45:15.674Z,99.90
2019-05-20T23:47:43.244Z,99.90
2019-05-20T23:50:10.791Z,99.90
2019-05-20T23:52:38.413Z,99.90
2019-05-20T23:55:06.146Z,99.90
2019-05-20T23:57:33.732Z,99.90
